Time;durP1;ratioP1;P1;durP2;ratioP2;P2;SDS_P1;SDS_P2;PMS_P1;PMS_P2;Temp;Humidity;BMP_temperature;BMP_pressure;BME280_temperature;BME280_humidity;BME280_pressure;Samples;Min_cycle;Max_cycle;Signal;HPM_P1;HPM_P2
2021/05/27 00:02:24;;;;;;;8.18;7.45;;;;;;;16.90;91.93;99966.45;1638092;86;21553;-68
2021/05/27 00:04:51;;;;;;;8.20;7.42;;;;;;;16.85;91.50;99970.56;1633470;87;21101;-71
2021/05/27 00:07:18;;;;;;;8.08;7.28;;;;;;;16.77;91.35;99963.03;1633392;87;21805;-72
2021/05/27 00:09:45;;;;;;;8.95;8.15;;;;;;;16.66;91.50;99963.66;1640631;86;21002;-71
2021/05/27 00:12:13;;;;;;;10.93;7.47;;;;;;;16.63;91.75;99967.48;1628553;88;21082;-71
2021/05/27 00:14:41;;;;;;;8.83;8.10;;;;;;;16.59;91.85;99965.08;1628413;88;21021;-70
2021/05/27 00:17:07;;;;;;;11.68;10.55;;;;;;;16.49;92.08;99963.22;1628721;88;21629;-71
2021/05/27 00:19:35;;;;;;;11.15;10.10;;;;;;;16.47;92.59;99962.67;1631833;86;21031;-74
2021/05/27 00:22:03;;;;;;;10.72;9.78;;;;;;;16.57;93.35;99958.53;1628643;86;21069;-70
2021/05/27 00:24:31;;;;;;;12.50;10.05;;;;;;;16.68;93.38;99958.77;1633045;86;21020;-70
2021/05/27 00:26:57;;;;;;;12.03;10.08;;;;;;;16.81;93.24;99962.19;1632213;87;21070;-69
2021/05/27 00:29:23;;;;;;;25.45;8.88;;;;;;;16.85;92.75;99963.23;1617459;86;21090;-71
2021/05/27 00:31:51;;;;;;;12.28;10.03;;;;;;;16.91;92.69;99966.17;1642936;86;21071;-70
2021/05/27 00:34:18;;;;;;;10.08;9.20;;;;;;;17.00;92.35;99960.39;1628794;87;21626;-72
2021/05/27 00:36:44;;;;;;;10.32;9.33;;;;;;;16.99;91.06;99960.66;1628600;88;20998;-72
2021/05/27 00:39:11;;;;;;;10.40;9.50;;;;;;;16.98;91.06;99957.67;1611034;86;21206;-72
2021/05/27 00:41:37;;;;;;;10.45;9.40;;;;;;;17.03;90.78;99955.46;1629253;87;20978;-71
2021/05/27 00:44:25;;;;;;;9.78;8.88;;;;;;;17.04;90.51;99957.91;1628364;88;22336;-73
2021/05/27 00:46:53;;;;;;;10.20;9.30;;;;;;;16.99;90.17;99955.23;1609878;88;21037;-71
2021/05/27 00:49:21;;;;;;;9.38;8.48;;;;;;;16.92;90.19;99962.91;1631240;86;20988;-71
2021/05/27 00:51:48;;;;;;;11.78;10.20;;;;;;;16.89;90.40;99964.83;1651444;86;21131;-74
2021/05/27 00:54:14;;;;;;;11.93;10.93;;;;;;;16.82;90.52;99957.02;1618739;86;21622;-70
2021/05/27 00:56:41;;;;;;;13.38;11.97;;;;;;;16.87;91.01;99960.23;1618378;88;21094;-69
2021/05/27 00:59:10;;;;;;;12.35;11.15;;;;;;;16.95;91.13;99952.83;1596294;88;21034;-71
2021/05/27 01:01:37;;;;;;;11.63;10.55;;;;;;;17.03;91.33;99954.09;1632834;86;20995;-70
2021/05/27 01:04:05;;;;;;;11.33;10.25;;;;;;;17.11;91.10;99958.94;1652286;86;21119;-70
2021/05/27 01:06:34;;;;;;;11.97;10.78;;;;;;;17.13;90.91;99945.86;1623907;86;20974;-68
2021/05/27 01:09:03;;;;;;;10.55;9.50;;;;;;;17.16;90.77;99947.48;1606275;87;21174;-68
2021/05/27 01:11:30;;;;;;;11.88;10.78;;;;;;;17.19;90.68;99948.80;1623321;86;20994;-71
2021/05/27 01:15:25;;;;;;;11.80;10.70;;;;;;;17.21;90.67;99946.07;1603419;88;21082;-70
2021/05/27 01:16:43;;;;;;;8.85;8.00;;;;;;;17.22;90.27;99944.13;1623482;86;21128;-76
2021/05/27 01:19:09;;;;;;;11.08;8.98;;;;;;;17.16;90.08;99946.66;1617765;88;21073;-68
2021/05/27 01:21:43;;;;;;;9.48;8.68;;;;;;;17.09;90.04;99949.70;1605037;88;20988;-70
2021/05/27 01:24:12;;;;;;;10.60;9.60;;;;;;;16.99;90.17;99948.44;1581261;89;21080;-71
2021/05/27 01:26:39;;;;;;;12.40;9.90;;;;;;;16.93;90.48;99955.00;1606343;88;21238;-70
2021/05/27 01:29:08;;;;;;;10.00;9.10;;;;;;;16.89;90.69;99943.09;1621479;87;21136;-68
2021/05/27 01:31:35;;;;;;;9.15;8.28;;;;;;;16.83;90.97;99945.61;1604698;89;20977;-71
2021/05/27 01:34:07;;;;;;;11.93;10.80;;;;;;;16.76;91.26;99953.26;1621594;87;21719;-70
2021/05/27 01:36:32;;;;;;;17.73;15.90;;;;;;;16.67;91.64;99953.06;1604233;87;20997;-70
2021/05/27 01:39:02;;;;;;;22.02;19.92;;;;;;;16.76;92.54;99952.71;1536295;92;21112;-70
2021/05/27 01:41:28;;;;;;;26.35;23.57;;;;;;;16.90;92.79;99950.96;1601359;89;21654;-69
2021/05/27 01:43:56;;;;;;;35.50;32.03;;;;;;;17.07;92.58;99950.55;1605456;88;21104;-70
2021/05/27 01:46:24;;;;;;;32.38;29.00;;;;;;;17.16;92.08;99950.19;1528085;93;21240;-71
2021/05/27 01:48:50;;;;;;;24.65;21.93;;;;;;;17.21;91.79;99951.50;1519354;91;21108;-71
2021/05/27 01:51:17;;;;;;;24.43;21.93;;;;;;;17.17;91.28;99954.51;1591208;89;21591;-70
2021/05/27 01:53:44;;;;;;;24.27;21.95;;;;;;;17.10;91.26;99954.59;1572724;89;21026;-69
2021/05/27 01:56:10;;;;;;;18.57;16.57;;;;;;;17.15;91.67;99947.75;1609671;88;21061;-69
2021/05/27 01:58:38;;;;;;;18.70;16.95;;;;;;;17.19;91.19;99945.53;1611720;87;21345;-77
2021/05/27 02:01:06;;;;;;;21.65;19.42;;;;;;;17.14;90.92;99940.14;1617778;87;21585;-72
2021/05/27 02:03:34;;;;;;;20.52;18.02;;;;;;;17.05;90.97;99947.30;1610259;87;20989;-69
2021/05/27 02:06:07;;;;;;;20.43;18.42;;;;;;;16.96;91.29;99945.75;1585858;90;21066;-71
2021/05/27 02:08:33;;;;;;;19.12;17.15;;;;;;;16.87;91.57;99946.66;1607723;89;21046;-70
2021/05/27 02:11:02;;;;;;;28.57;25.80;;;;;;;16.78;92.08;99946.47;1590943;89;21186;-78
2021/05/27 02:13:32;;;;;;;29.92;26.87;;;;;;;16.69;92.71;99947.36;1611223;89;20972;-73
2021/05/27 02:16:01;;;;;;;33.28;29.82;;;;;;;16.69;93.39;99951.42;1621743;87;21025;-73
2021/05/27 02:18:28;;;;;;;31.45;28.17;;;;;;;16.76;93.88;99951.36;1614600;87;21164;-70
2021/05/27 02:20:56;;;;;;;31.82;28.15;;;;;;;16.84;94.02;99950.73;1611361;89;21073;-69
2021/05/27 02:23:24;;;;;;;27.05;24.37;;;;;;;16.91;94.02;99947.70;1611361;88;21120;-71
2021/05/27 02:25:55;;;;;;;28.27;25.52;;;;;;;16.99;93.97;99949.25;1608888;89;21035;-68
2021/05/27 02:28:27;;;;;;;33.78;30.00;;;;;;;16.95;93.55;99944.12;1609368;89;20965;-69
2021/05/27 02:30:54;;;;;;;28.23;25.37;;;;;;;16.95;93.83;99940.59;1590861;89;21553;-78
2021/05/27 02:33:21;;;;;;;28.35;25.50;;;;;;;16.99;93.82;99948.44;1610083;87;21056;-69
2021/05/27 02:35:49;;;;;;;27.80;24.87;;;;;;;16.97;93.49;99946.57;1589903;89;21120;-69
2021/05/27 02:38:17;;;;;;;20.60;18.60;;;;;;;16.92;93.48;99944.71;1609390;87;21099;-69
2021/05/27 02:40:44;;;;;;;20.80;18.73;;;;;;;16.94;94.00;99938.97;1603238;87;21103;-71
2021/05/27 02:43:12;;;;;;;28.38;25.37;;;;;;;17.04;94.31;99942.14;1633423;87;21061;-71
2021/05/27 02:45:39;;;;;;;25.00;22.42;;;;;;;17.10;94.10;99944.53;1612697;86;21041;-70
2021/05/27 02:48:07;;;;;;;25.35;22.85;;;;;;;17.07;93.55;99941.59;1609310;88;21163;-70
2021/05/27 02:50:36;;;;;;;22.52;20.25;;;;;;;17.11;93.83;99936.66;1598585;88;21100;-71
2021/05/27 02:53:04;;;;;;;23.70;20.65;;;;;;;17.21;93.53;99936.55;1621760;87;22331;-70
2021/05/27 02:55:33;;;;;;;23.95;20.52;;;;;;;17.22;92.65;99942.23;1621511;87;21129;-71
2021/05/27 02:58:00;;;;;;;27.67;24.67;;;;;;;17.14;92.27;99940.14;1607372;88;21037;-71
2021/05/27 03:00:27;;;;;;;21.30;19.17;;;;;;;17.06;92.49;99936.70;1615080;88;21113;-71
2021/05/27 03:02:55;;;;;;;34.23;29.10;;;;;;;17.08;92.87;99927.69;1606086;88;21057;-70
2021/05/27 03:05:22;;;;;;;27.52;24.92;;;;;;;17.07;92.75;99928.00;1608477;88;21612;-71
2021/05/27 03:07:48;;;;;;;23.77;21.37;;;;;;;17.04;92.80;99923.12;1583697;88;20997;-70
2021/05/27 03:10:16;;;;;;;24.10;21.68;;;;;;;16.99;92.95;99919.91;1606867;87;21109;-67
2021/05/27 03:12:45;;;;;;;22.30;19.95;;;;;;;16.96;93.10;99924.56;1605017;89;21581;-70
2021/05/27 03:15:12;;;;;;;22.02;19.95;;;;;;;16.95;93.25;99926.47;1541952;92;21628;-69
2021/05/27 03:17:40;;;;;;;16.75;15.10;;;;;;;16.89;93.25;99930.31;1527265;92;21627;-69
2021/05/27 03:20:09;;;;;;;18.50;16.60;;;;;;;16.84;93.52;99929.55;1603744;88;21044;-68
2021/05/27 03:22:36;;;;;;;16.95;15.32;;;;;;;16.79;93.84;99933.66;1594220;87;21044;-70
2021/05/27 03:25:05;;;;;;;17.40;15.63;;;;;;;16.78;94.21;99931.52;1542854;93;22333;-70
2021/05/27 03:27:32;;;;;;;20.62;17.62;;;;;;;16.76;94.44;99928.27;1547522;92;21023;-67
2021/05/27 03:29:59;;;;;;;15.70;14.10;;;;;;;16.77;94.81;99934.52;1627723;88;21081;-72
2021/05/27 03:32:26;;;;;;;12.93;11.78;;;;;;;16.82;95.04;99930.39;1608927;88;21060;-70
2021/05/27 03:34:54;;;;;;;13.95;12.45;;;;;;;16.87;95.19;99928.45;1622840;87;21044;-69
2021/05/27 03:37:23;;;;;;;15.32;13.83;;;;;;;16.92;95.14;99928.95;1621395;87;21085;-68
2021/05/27 03:42:52;;;;;;;13.70;12.25;;;;;;;16.99;95.12;99915.83;1581441;90;20960;-69
2021/05/27 03:45:24;;;;;;;21.42;13.08;;;;;;;16.97;94.82;99917.49;1519274;93;21649;-68
2021/05/27 03:47:59;;;;;;;15.60;12.75;;;;;;;16.98;95.10;99917.73;1581690;89;21019;-69
2021/05/27 03:50:27;;;;;;;15.43;13.93;;;;;;;17.00;95.15;99918.81;1607656;88;21113;-69
2021/05/27 03:52:55;;;;;;;13.62;12.33;;;;;;;16.96;95.15;99917.22;1616222;88;21113;-70
2021/05/27 03:55:23;;;;;;;14.80;13.50;;;;;;;16.93;95.20;99916.96;1603756;87;21150;-68
2021/05/27 03:57:52;;;;;;;12.60;11.40;;;;;;;16.91;95.33;99920.53;1611359;87;20996;-69
2021/05/27 04:00:42;;;;;;;12.58;11.48;;;;;;;16.92;95.55;99919.44;1615315;88;21056;-69
2021/05/27 04:03:10;;;;;;;14.47;13.10;;;;;;;16.87;95.55;99923.02;1614375;87;21413;-69
2021/05/27 04:08:24;;;;;;;11.68;10.68;;;;;;;16.92;96.09;99922.97;1593483;88;20975;-69
2021/05/27 04:10:51;;;;;;;12.88;11.83;;;;;;;17.02;96.05;99924.78;1632819;87;21637;-68
2021/05/27 04:13:19;;;;;;;13.58;12.37;;;;;;;17.08;95.78;99930.41;1645010;87;21020;-68
2021/05/27 04:15:47;;;;;;;12.30;11.18;;;;;;;17.10;95.69;99918.72;1626152;87;21151;-67
2021/05/27 04:18:17;;;;;;;15.38;13.65;;;;;;;17.14;95.60;99922.48;1644623;87;20993;-69
2021/05/27 04:20:51;;;;;;;13.38;11.90;;;;;;;17.16;95.36;99922.20;1622430;88;21592;-69
2021/05/27 04:23:40;;;;;;;13.78;12.33;;;;;;;17.18;95.31;99916.72;1643111;87;20980;-70
2021/05/27 04:26:06;;;;;;;14.73;13.32;;;;;;;17.22;95.33;99916.95;1627362;87;21036;-69
2021/05/27 04:28:33;;;;;;;15.70;14.10;;;;;;;17.23;95.38;99916.67;1645815;87;21159;-71
2021/05/27 04:31:12;;;;;;;15.68;14.15;;;;;;;17.30;95.33;99919.06;1622582;88;20952;-68
2021/05/27 04:33:54;;;;;;;14.63;13.20;;;;;;;17.40;95.21;99917.59;1621779;87;21046;-70
2021/05/27 04:36:20;;;;;;;14.18;11.93;;;;;;;17.47;94.72;99913.14;1600847;88;21627;-68
2021/05/27 04:38:48;;;;;;;14.60;13.10;;;;;;;17.52;94.53;99919.89;1620677;88;21088;-69
2021/05/27 04:41:17;;;;;;;14.38;12.90;;;;;;;17.57;94.32;99919.28;1627379;87;21024;-68
2021/05/27 04:43:47;;;;;;;11.75;10.75;;;;;;;17.65;94.18;99913.22;1624147;87;21100;-67
2021/05/27 04:46:14;;;;;;;14.35;11.53;;;;;;;17.72;93.51;99908.80;1644914;87;21052;-73
2021/05/27 04:48:42;;;;;;;13.50;12.10;;;;;;;17.76;92.97;99911.19;1640999;87;21153;-69
2021/05/27 04:51:09;;;;;;;13.75;12.07;;;;;;;17.77;92.66;99916.34;1622441;88;21035;-69
2021/05/27 04:53:35;;;;;;;11.48;10.28;;;;;;;17.83;92.49;99920.63;1622367;88;21105;-67
2021/05/27 04:56:03;;;;;;;15.13;13.60;;;;;;;17.86;91.94;99916.51;1602325;88;20992;-68
2021/05/27 04:58:32;;;;;;;12.05;10.85;;;;;;;17.93;92.04;99917.52;1620920;87;20948;-75
2021/05/27 05:00:59;;;;;;;13.68;12.43;;;;;;;18.07;91.19;99915.14;1596609;89;21046;-66
2021/05/27 05:03:26;;;;;;;14.55;12.93;;;;;;;18.15;90.60;99911.75;1619625;88;21046;-69
2021/05/27 05:05:53;;;;;;;10.43;9.40;;;;;;;18.25;90.09;99918.96;1606270;87;21263;-67
2021/05/27 05:08:20;;;;;;;10.38;9.48;;;;;;;18.33;89.35;99916.11;1644951;87;21025;-66
2021/05/27 05:10:47;;;;;;;12.95;11.73;;;;;;;18.33;88.45;99916.92;1601585;87;21027;-68
2021/05/27 05:13:14;;;;;;;10.45;9.38;;;;;;;18.38;88.59;99922.84;1622350;87;21089;-72
2021/05/27 05:15:43;;;;;;;10.53;9.63;;;;;;;18.51;88.17;99921.55;1644986;87;20977;-69
2021/05/27 05:18:12;;;;;;;15.65;10.68;;;;;;;18.60;87.42;99920.37;1644904;85;21239;-69
2021/05/27 05:20:42;;;;;;;12.68;11.38;;;;;;;18.63;87.10;99925.22;1603947;87;21599;-68
2021/05/27 05:23:10;;;;;;;13.75;12.45;;;;;;;18.63;86.35;99929.30;1598517;88;21724;-68
2021/05/27 05:25:39;;;;;;;14.38;12.88;;;;;;;18.67;86.34;99918.06;1596751;89;21035;-67
2021/05/27 05:28:06;;;;;;;13.72;11.70;;;;;;;18.75;86.16;99915.22;1610837;87;21088;-78
2021/05/27 05:30:32;;;;;;;17.02;15.48;;;;;;;18.82;85.76;99914.27;1603981;88;21808;-69
2021/05/27 05:32:59;;;;;;;14.43;11.45;;;;;;;18.85;85.49;99911.75;1613193;87;21134;-69
2021/05/27 05:35:26;;;;;;;16.10;13.22;;;;;;;18.90;85.06;99913.58;1596661;89;21690;-69
2021/05/27 05:37:53;;;;;;;17.87;13.32;;;;;;;18.85;84.61;99911.75;1596843;88;20975;-68
2021/05/27 05:40:23;;;;;;;15.93;13.25;;;;;;;18.83;84.45;99913.17;1587142;87;21084;-68
2021/05/27 05:42:50;;;;;;;14.63;13.20;;;;;;;18.81;83.96;99904.47;1623419;87;22390;-69
2021/05/27 05:45:17;;;;;;;15.48;13.93;;;;;;;18.81;83.97;99903.92;1597073;88;20999;-68
2021/05/27 05:47:49;;;;;;;14.55;13.13;;;;;;;18.83;83.91;99913.98;1596817;88;21555;-69
2021/05/27 05:50:45;;;;;;;12.63;11.45;;;;;;;18.85;83.86;99909.61;1596930;89;22107;-67
2021/05/27 05:52:45;;;;;;;16.17;14.38;;;;;;;18.90;83.78;99910.85;1596082;88;21085;-70
2021/05/27 05:55:11;;;;;;;12.30;11.10;;;;;;;18.96;83.81;99911.02;1606298;88;21013;-72
2021/05/27 05:57:38;;;;;;;19.55;14.50;;;;;;;19.08;83.54;99905.36;1606055;88;21616;-69
2021/05/27 06:00:07;;;;;;;14.35;12.33;;;;;;;19.16;83.21;99908.75;1606331;89;20953;-69
2021/05/27 06:02:36;;;;;;;16.37;13.18;;;;;;;19.21;82.04;99902.39;1602707;89;21128;-68
2021/05/27 06:05:04;;;;;;;10.65;9.73;;;;;;;19.21;81.71;99901.02;1519282;94;21569;-68
2021/05/27 06:07:45;;;;;;;16.30;12.13;;;;;;;19.26;81.41;99900.12;1617407;88;21646;-68
2021/05/27 06:10:12;;;;;;;12.93;10.30;;;;;;;19.30;80.37;99901.13;1608727;88;21029;-69
2021/05/27 06:12:39;;;;;;;13.03;11.70;;;;;;;19.34;80.03;99902.13;1619482;87;21140;-70
2021/05/27 06:15:09;;;;;;;15.90;14.40;;;;;;;19.41;79.91;99902.00;1543817;91;21117;-68
2021/05/27 06:17:35;;;;;;;13.05;11.90;;;;;;;19.51;79.54;99906.48;1585547;88;21020;-69
2021/05/27 06:20:03;;;;;;;14.87;13.35;;;;;;;19.59;79.21;99905.21;1605017;89;22033;-69
2021/05/27 06:22:31;;;;;;;18.10;15.50;;;;;;;19.63;78.68;99908.13;1525197;93;21099;-68
2021/05/27 06:25:00;;;;;;;18.60;13.62;;;;;;;19.63;78.61;99898.58;1606048;89;21065;-71
2021/05/27 06:27:27;;;;;;;21.73;14.07;;;;;;;19.67;78.56;99902.86;1584653;88;20961;-69
2021/05/27 06:29:53;;;;;;;24.95;14.15;;;;;;;19.69;78.20;99904.75;1583196;89;21597;-67
2021/05/27 06:32:20;;;;;;;26.82;16.48;;;;;;;19.77;78.06;99913.58;1605577;88;21188;-68
2021/05/27 06:34:48;;;;;;;19.90;14.58;;;;;;;19.77;78.06;99913.58;1585190;89;20985;-69
2021/05/27 06:37:15;;;;;;;12.00;10.80;;;;;;;19.81;77.95;99906.39;1606306;88;21113;-70
2021/05/27 06:39:42;;;;;;;16.42;13.68;;;;;;;19.84;77.52;99895.69;1584466;89;21049;-69
2021/05/27 06:42:09;;;;;;;18.07;12.93;;;;;;;19.87;77.51;99897.80;1606214;89;21040;-67
2021/05/27 06:44:36;;;;;;;12.33;10.93;;;;;;;19.93;77.58;99896.58;1522656;93;21570;-70
2021/05/27 06:47:03;;;;;;;13.62;12.10;;;;;;;20.03;76.84;99896.36;1601978;88;20981;-72
2021/05/27 06:49:29;;;;;;;16.37;11.80;;;;;;;20.07;76.31;99907.47;1609888;87;21617;-70
2021/05/27 06:51:57;;;;;;;12.63;11.30;;;;;;;20.10;75.97;99910.13;1567435;87;21032;-71
2021/05/27 06:54:25;;;;;;;13.13;11.15;;;;;;;20.19;74.93;99901.48;1565679;90;21668;-69
2021/05/27 06:56:54;;;;;;;10.85;9.38;;;;;;;20.26;73.96;99899.11;1611310;89;21032;-69
2021/05/27 06:59:20;;;;;;;11.75;10.68;;;;;;;20.34;73.03;99899.20;1590858;89;21071;-68
2021/05/27 07:01:47;;;;;;;18.17;15.75;;;;;;;20.43;72.72;99900.67;1611348;87;21076;-68
2021/05/27 07:04:13;;;;;;;13.30;11.93;;;;;;;20.50;71.66;99902.95;1593874;88;21060;-68
2021/05/27 07:06:40;;;;;;;15.60;11.65;;;;;;;20.49;71.93;99900.77;1604634;87;21069;-69
2021/05/27 07:09:06;;;;;;;26.93;10.98;;;;;;;20.50;71.68;99898.84;1589822;89;22297;-69
2021/05/27 07:11:33;;;;;;;13.10;11.60;;;;;;;20.55;71.87;99898.73;1611044;87;20985;-68
2021/05/27 07:14:00;;;;;;;11.55;10.35;;;;;;;20.60;71.96;99895.88;1571439;90;21053;-70
2021/05/27 07:16:27;;;;;;;16.80;10.48;;;;;;;20.65;72.15;99895.75;1611117;88;21076;-67
2021/05/27 07:18:55;;;;;;;15.83;10.70;;;;;;;20.70;71.96;99893.70;1611397;87;21024;-67
2021/05/27 07:21:21;;;;;;;14.38;12.30;;;;;;;20.81;71.40;99899.14;1611103;89;21007;-70
2021/05/27 07:23:48;;;;;;;12.35;11.00;;;;;;;20.89;71.04;99894.30;1609267;89;20977;-68
2021/05/27 07:26:14;;;;;;;11.43;10.32;;;;;;;20.96;71.21;99897.94;1592179;87;21588;-73
2021/05/27 07:28:40;;;;;;;13.68;11.45;;;;;;;21.04;69.83;99886.81;1633382;87;21125;-69
2021/05/27 07:31:07;;;;;;;18.48;12.07;;;;;;;21.13;69.45;99875.35;1604858;88;21056;-69
2021/05/27 07:33:33;;;;;;;19.05;12.20;;;;;;;21.20;69.42;99883.92;1614440;87;21109;-68
2021/05/27 07:36:00;;;;;;;12.98;11.75;;;;;;;21.26;69.42;99888.14;1637293;87;20946;-70
2021/05/27 07:38:26;;;;;;;13.62;12.25;;;;;;;21.26;68.74;99884.85;1637411;86;20965;-69
2021/05/27 07:40:53;;;;;;;12.37;11.08;;;;;;;21.23;68.93;99892.89;1629624;86;21099;-69
2021/05/27 07:43:19;;;;;;;16.97;14.23;;;;;;;21.18;68.70;99889.73;1592040;87;21762;-69
2021/05/27 07:45:46;;;;;;;15.93;13.40;;;;;;;21.12;69.09;99890.95;1564999;90;21161;-71
2021/05/27 07:48:12;;;;;;;12.82;11.53;;;;;;;21.13;69.59;99884.40;1594588;90;21007;-69
2021/05/27 07:50:39;;;;;;;13.43;10.23;;;;;;;21.18;69.68;99879.35;1568511;90;21137;-70
2021/05/27 07:53:07;;;;;;;12.28;10.98;;;;;;;21.25;69.80;99878.32;1564896;90;21674;-71
2021/05/27 07:55:34;;;;;;;15.60;10.82;;;;;;;21.33;69.21;99878.94;1565058;91;21090;-68
2021/05/27 07:58:00;;;;;;;12.93;10.30;;;;;;;21.42;68.26;99878.41;1561003;90;21043;-69
2021/05/27 08:00:27;;;;;;;12.68;11.48;;;;;;;21.46;68.20;99880.74;1588417;90;21110;-69
2021/05/27 08:02:53;;;;;;;13.22;11.95;;;;;;;21.46;68.00;99875.83;1568809;90;21111;-68
2021/05/27 08:05:20;;;;;;;16.40;14.68;;;;;;;21.44;68.63;99870.66;1569601;90;21168;-67
2021/05/27 08:07:47;;;;;;;13.50;12.20;;;;;;;21.44;68.79;99878.09;1569505;90;21690;-68
2021/05/27 08:10:13;;;;;;;20.65;18.50;;;;;;;21.41;68.79;99872.67;1592651;90;21335;-69
2021/05/27 08:12:41;;;;;;;15.58;12.53;;;;;;;21.46;68.46;99868.98;1565185;90;21686;-69
2021/05/27 08:15:10;;;;;;;13.18;11.60;;;;;;;21.53;68.17;99870.71;1564990;91;21076;-67
2021/05/27 08:17:36;;;;;;;13.15;11.75;;;;;;;21.53;67.38;99864.67;1571659;90;21106;-69
2021/05/27 08:20:07;;;;;;;17.62;12.95;;;;;;;21.58;67.39;99869.98;1592536;90;21011;-69
2021/05/27 08:22:33;;;;;;;16.73;14.18;;;;;;;21.57;67.60;99856.63;1567214;90;21777;-69
2021/05/27 08:25:00;;;;;;;11.97;10.90;;;;;;;21.58;67.46;99862.36;1569505;90;20972;-68
2021/05/27 08:27:27;;;;;;;12.63;11.40;;;;;;;21.64;67.22;99862.43;1570070;90;21024;-69
2021/05/27 08:29:54;;;;;;;17.52;11.60;;;;;;;21.69;67.07;99855.44;1580081;90;21606;-69
2021/05/27 08:32:21;;;;;;;19.32;12.25;;;;;;;21.72;67.28;99854.26;1589954;90;21059;-69
2021/05/27 08:34:47;;;;;;;17.32;13.45;;;;;;;21.73;67.13;99859.14;1569628;90;21132;-69
2021/05/27 08:37:14;;;;;;;15.15;13.65;;;;;;;21.73;67.25;99857.77;1592645;90;21630;-71
2021/05/27 08:39:40;;;;;;;14.23;12.75;;;;;;;21.71;66.93;99860.84;1580777;90;21086;-68
2021/05/27 08:42:07;;;;;;;13.30;12.00;;;;;;;21.74;67.11;99850.62;1563852;91;21090;-69
2021/05/27 08:44:40;;;;;;;16.25;14.70;;;;;;;21.79;66.90;99844.17;1573571;90;21053;-70
2021/05/27 08:47:06;;;;;;;18.95;13.38;;;;;;;21.87;66.90;99852.18;1582265;90;21126;-70
2021/05/27 08:49:35;;;;;;;15.55;11.78;;;;;;;21.94;66.75;99851.96;1564631;90;21034;-71
2021/05/27 08:52:02;;;;;;;12.98;11.65;;;;;;;22.02;66.26;99844.87;1570225;90;21099;-69
2021/05/27 08:54:30;;;;;;;13.58;12.15;;;;;;;22.07;65.80;99844.70;1589245;90;21039;-73
2021/05/27 08:57:02;;;;;;;11.57;10.38;;;;;;;22.11;66.14;99848.41;1561653;91;21649;-71
2021/05/27 08:59:29;;;;;;;11.93;10.93;;;;;;;22.21;65.88;99856.31;1561005;90;21685;-70
2021/05/27 09:02:07;;;;;;;16.77;15.13;;;;;;;22.26;65.32;99851.23;1540955;91;21174;-67
2021/05/27 09:04:33;;;;;;;16.65;14.33;;;;;;;22.32;64.59;99846.64;1548611;90;21063;-67
2021/05/27 09:07:03;;;;;;;13.50;12.25;;;;;;;22.39;64.19;99854.39;1584584;90;21072;-68
2021/05/27 09:09:51;;;;;;;12.53;11.43;;;;;;;22.40;63.52;99854.04;1575075;90;21119;-69
2021/05/27 09:12:34;;;;;;;13.62;11.45;;;;;;;22.37;63.64;99854.70;1580691;90;21838;-71
2021/05/27 09:15:05;;;;;;;14.18;11.95;;;;;;;22.33;63.65;99857.05;1585568;90;21055;-68
2021/05/27 09:17:52;;;;;;;10.82;9.80;;;;;;;22.27;63.41;99850.11;1584895;90;21079;-69
2021/05/27 09:20:22;;;;;;;12.23;11.03;;;;;;;22.24;63.72;99848.83;1601080;89;21021;-68
2021/05/27 09:23:14;;;;;;;17.52;11.22;;;;;;;22.26;64.10;99849.30;1564860;89;21128;-67
2021/05/27 09:25:47;;;;;;;13.20;12.00;;;;;;;22.33;63.74;99852.93;1572398;90;22582;-69
2021/05/27 09:28:23;;;;;;;12.45;11.35;;;;;;;22.29;64.24;99860.20;1596399;88;22262;-68
2021/05/27 09:30:54;;;;;;;12.68;10.75;;;;;;;22.30;64.11;99854.96;1597339;89;21177;-68
2021/05/27 09:33:34;;;;;;;11.97;10.88;;;;;;;22.34;63.61;99851.25;1519601;92;21156;-68
2021/05/27 09:36:11;;;;;;;18.92;9.75;;;;;;;22.39;63.37;99853.02;1560042;91;21609;-69
2021/05/27 09:38:41;;;;;;;15.90;9.78;;;;;;;22.45;61.72;99848.39;1559721;91;21108;-69
2021/05/27 09:41:18;;;;;;;15.45;9.55;;;;;;;22.56;60.83;99848.30;1565856;90;21642;-71
2021/05/27 09:43:54;;;;;;;9.80;8.78;;;;;;;22.68;60.57;99839.42;1562149;91;21104;-67
2021/05/27 09:46:22;;;;;;;14.03;9.43;;;;;;;22.77;58.42;99842.98;1561966;91;21149;-69
2021/05/27 09:49:08;;;;;;;9.43;8.53;;;;;;;22.80;58.71;99841.50;1592531;89;21077;-70
2021/05/27 09:51:37;;;;;;;9.48;8.08;;;;;;;22.83;58.86;99841.64;1590120;88;21090;-71
2021/05/27 09:54:04;;;;;;;9.05;8.05;;;;;;;22.91;58.43;99842.20;1604576;88;21544;-70
2021/05/27 09:56:36;;;;;;;8.80;7.95;;;;;;;22.93;58.86;99837.73;1572618;90;21110;-71
2021/05/27 09:59:03;;;;;;;11.95;9.40;;;;;;;22.92;58.79;99834.78;1572682;90;21220;-72
2021/05/27 10:01:30;;;;;;;8.45;7.60;;;;;;;22.92;58.69;99833.41;1604860;88;21575;-72
2021/05/27 10:04:15;;;;;;;10.70;8.60;;;;;;;22.88;58.93;99834.61;1596454;88;21009;-71
2021/05/27 10:06:43;;;;;;;10.90;7.75;;;;;;;22.84;59.42;99832.85;1596296;88;20985;-71
2021/05/27 10:09:11;;;;;;;12.13;7.50;;;;;;;22.84;58.98;99837.78;1614548;88;21596;-68
2021/05/27 10:11:39;;;;;;;8.25;7.42;;;;;;;22.82;58.84;99841.43;1615210;87;21577;-74
2021/05/27 10:14:07;;;;;;;8.50;7.72;;;;;;;22.82;59.39;99833.77;1597998;88;20991;-74
2021/05/27 10:16:37;;;;;;;8.43;7.62;;;;;;;22.88;59.23;99831.88;1612468;87;21217;-75
2021/05/27 10:19:04;;;;;;;8.18;7.47;;;;;;;23.01;58.48;99836.92;1621447;87;21602;-72
2021/05/27 10:21:32;;;;;;;9.10;7.03;;;;;;;23.08;58.42;99834.46;1613501;87;21110;-68
2021/05/27 10:23:59;;;;;;;10.70;7.80;;;;;;;23.13;58.45;99827.98;1589053;89;21582;-68
2021/05/27 10:26:26;;;;;;;8.05;7.10;;;;;;;23.22;58.10;99825.44;1621179;86;21084;-68
2021/05/27 10:28:54;;;;;;;8.53;7.83;;;;;;;23.23;58.14;99830.36;1619228;87;22075;-66
2021/05/27 10:31:22;;;;;;;8.60;7.70;;;;;;;23.18;58.23;99823.13;1620162;87;21101;-71
2021/05/27 10:33:49;;;;;;;9.48;8.05;;;;;;;23.12;58.57;99816.20;1604687;87;21610;-69
2021/05/27 10:36:17;;;;;;;8.55;7.28;;;;;;;23.04;58.91;99817.05;1614723;88;21080;-70
2021/05/27 10:38:49;;;;;;;11.38;9.28;;;;;;;23.04;59.13;99817.86;1604345;87;21068;-72
2021/05/27 10:41:31;;;;;;;8.65;7.78;;;;;;;23.06;59.28;99816.17;1622859;88;20972;-70
2021/05/27 10:44:07;;;;;;;9.18;8.35;;;;;;;23.07;59.49;99814.23;1616138;88;21064;-70
2021/05/27 10:46:49;;;;;;;21.75;9.83;;;;;;;23.04;59.65;99811.56;1597768;88;21016;-69
2021/05/27 10:49:45;;;;;;;9.25;8.30;;;;;;;23.02;59.46;99812.48;1616019;88;21621;-72
2021/05/27 10:52:33;;;;;;;8.53;7.78;;;;;;;23.00;59.47;99813.36;1612544;87;21173;-74
2021/05/27 10:55:00;;;;;;;10.03;9.00;;;;;;;22.95;59.69;99810.80;1562029;88;21150;-76
2021/05/27 10:57:45;;;;;;;11.00;9.53;;;;;;;22.92;59.76;99812.84;1593343;88;21091;-69
2021/05/27 11:00:19;;;;;;;12.25;9.03;;;;;;;22.84;59.99;99813.09;1590656;89;21025;-69
2021/05/27 11:02:45;;;;;;;9.65;8.73;;;;;;;22.82;60.25;99806.34;1570987;90;21009;-71
2021/05/27 11:05:22;;;;;;;14.95;11.73;;;;;;;22.83;60.39;99801.88;1589847;88;21093;-71
2021/05/27 11:08:19;;;;;;;16.02;11.05;;;;;;;22.75;60.44;99805.46;1603044;88;21160;-70
2021/05/27 11:10:46;;;;;;;16.65;10.53;;;;;;;22.67;60.53;99804.09;1567121;91;21037;-69
2021/05/27 11:13:13;;;;;;;12.47;11.38;;;;;;;22.66;60.32;99805.22;1556572;88;21022;-70
2021/05/27 11:16:04;;;;;;;13.95;11.48;;;;;;;22.59;60.47;99805.71;1588974;88;21153;-70
2021/05/27 11:18:33;;;;;;;14.65;11.73;;;;;;;22.51;60.90;99801.87;1598981;88;21601;-70
2021/05/27 11:21:34;;;;;;;12.53;10.35;;;;;;;22.43;61.40;99798.59;1597304;88;21190;-70
2021/05/27 11:24:35;;;;;;;11.30;10.23;;;;;;;22.39;61.69;99801.75;1594889;88;21085;-67
2021/05/27 11:26:40;;;;;;;12.23;10.95;;;;;;;22.38;61.86;99795.21;1593204;89;21074;-70
2021/05/27 11:29:13;;;;;;;11.50;10.20;;;;;;;22.29;61.83;99797.16;1597591;89;20977;-71
2021/05/27 11:31:45;;;;;;;13.98;11.35;;;;;;;22.24;62.29;99791.84;1595942;88;21080;-69
2021/05/27 11:34:11;;;;;;;12.23;11.03;;;;;;;22.21;62.67;99793.84;1580631;88;21643;-69
2021/05/27 11:36:38;;;;;;;17.23;10.32;;;;;;;22.17;62.95;99792.33;1619199;88;21104;-68